Time;durP1;ratioP1;P1;durP2;ratioP2;P2;SDS_P1;SDS_P2;PMS_P1;PMS_P2;Temp;Humidity;BMP_temperature;BMP_pressure;BME280_temperature;BME280_humidity;BME280_pressure;Samples;Min_cycle;Max_cycle;Signal;HPM_P1;HPM_P2
2022/05/22 00:02:06;;;;;;;6.88;3.38;;;12.50;99.90;;;;;;5079164;28;20047;-62
2022/05/22 00:04:32;;;;;;;4.72;3.10;;;12.50;99.90;;;;;;5088079;28;20932;-62
2022/05/22 00:06:58;;;;;;;8.43;3.30;;;12.40;99.90;;;;;;5084219;28;20052;-63
2022/05/22 00:09:24;;;;;;;6.90;3.15;;;12.40;99.90;;;;;;5075774;28;20048;-62
2022/05/22 00:11:50;;;;;;;5.32;2.75;;;12.40;99.90;;;;;;5077902;28;20036;-63
2022/05/22 00:14:17;;;;;;;7.38;3.13;;;12.30;99.90;;;;;;5085517;28;20143;-62
2022/05/22 00:16:46;;;;;;;7.05;3.00;;;12.30;99.90;;;;;;5085268;28;20063;-65
2022/05/22 00:19:27;;;;;;;7.82;3.20;;;12.30;99.90;;;;;;5088398;28;20115;-63
2022/05/22 00:21:53;;;;;;;8.07;3.00;;;12.20;99.90;;;;;;5080006;28;20052;-62
2022/05/22 00:24:21;;;;;;;7.20;3.00;;;12.20;99.90;;;;;;5081768;28;20040;-63
2022/05/22 00:26:48;;;;;;;6.63;3.72;;;12.20;99.90;;;;;;5081664;28;21909;-63
2022/05/22 00:29:16;;;;;;;8.25;3.90;;;12.20;99.90;;;;;;5082023;28;20047;-63
2022/05/22 00:31:44;;;;;;;7.18;3.53;;;12.20;99.90;;;;;;5084417;28;20044;-64
2022/05/22 00:34:10;;;;;;;9.82;3.35;;;12.20;99.90;;;;;;5080324;28;20044;-65
2022/05/22 00:36:36;;;;;;;7.43;3.75;;;12.10;99.90;;;;;;5079475;28;20141;-63
2022/05/22 00:39:02;;;;;;;6.38;2.95;;;12.10;99.90;;;;;;5084861;28;20769;-65
2022/05/22 00:41:29;;;;;;;9.75;3.42;;;12.10;99.90;;;;;;5085342;28;20032;-63
2022/05/22 00:43:56;;;;;;;7.35;3.30;;;12.10;99.90;;;;;;5076625;28;20040;-62
2022/05/22 00:46:23;;;;;;;8.98;3.40;;;12.00;99.90;;;;;;5080198;28;20038;-63
2022/05/22 00:48:53;;;;;;;7.15;3.35;;;12.00;99.90;;;;;;5080970;28;20052;-63
2022/05/22 00:51:27;;;;;;;5.53;3.15;;;12.00;99.90;;;;;;5075741;28;20046;-63
2022/05/22 00:54:02;;;;;;;6.38;3.45;;;12.00;99.90;;;;;;5085157;28;20136;-65
2022/05/22 00:56:36;;;;;;;6.45;3.15;;;12.00;99.90;;;;;;5081476;28;20122;-63
2022/05/22 00:59:07;;;;;;;6.78;3.55;;;12.00;99.90;;;;;;5085187;28;20631;-63
2022/05/22 01:01:33;;;;;;;7.18;3.40;;;12.00;99.90;;;;;;5085167;28;20495;-64
2022/05/22 01:03:59;;;;;;;6.32;3.33;;;11.90;99.90;;;;;;5085050;28;20653;-63
2022/05/22 01:06:26;;;;;;;7.00;3.30;;;11.90;99.90;;;;;;5083759;28;20044;-64
2022/05/22 01:08:53;;;;;;;7.43;3.38;;;11.90;99.90;;;;;;5079275;28;20508;-63
2022/05/22 01:11:27;;;;;;;8.13;3.67;;;11.90;99.90;;;;;;5074695;28;20064;-62
2022/05/22 01:13:56;;;;;;;7.97;3.60;;;11.90;99.90;;;;;;5084003;28;20044;-63
2022/05/22 01:16:22;;;;;;;8.20;3.90;;;11.70;99.90;;;;;;5074827;28;20048;-63
2022/05/22 01:18:55;;;;;;;8.23;3.65;;;11.80;99.90;;;;;;5081585;28;20096;-62
2022/05/22 01:21:29;;;;;;;8.23;3.60;;;11.80;99.90;;;;;;5077704;28;20040;-64
2022/05/22 01:23:54;;;;;;;7.93;3.75;;;11.80;99.90;;;;;;5076657;28;20505;-63
2022/05/22 01:26:21;;;;;;;7.53;3.58;;;11.70;99.90;;;;;;5074933;28;20029;-64
2022/05/22 01:28:47;;;;;;;6.03;3.08;;;11.70;99.90;;;;;;5081777;28;20040;-62
2022/05/22 01:31:13;;;;;;;8.63;3.50;;;11.70;99.90;;;;;;5081158;28;20120;-63
2022/05/22 01:33:40;;;;;;;7.05;3.80;;;11.60;99.90;;;;;;5080347;28;20402;-64
2022/05/22 01:36:06;;;;;;;6.65;3.30;;;11.60;99.90;;;;;;5075088;28;20061;-63
2022/05/22 01:38:33;;;;;;;7.32;3.63;;;11.60;99.90;;;;;;5076609;28;20074;-63
2022/05/22 01:40:59;;;;;;;7.85;3.67;;;11.60;99.90;;;;;;5081469;28;20044;-63
2022/05/22 01:43:24;;;;;;;5.68;3.47;;;11.50;99.90;;;;;;5077051;28;21801;-63
2022/05/22 01:45:50;;;;;;;8.00;4.90;;;11.50;99.90;;;;;;5078212;28;20047;-62
2022/05/22 01:48:16;;;;;;;8.07;5.70;;;11.50;99.90;;;;;;5079961;28;20128;-63
2022/05/22 01:50:43;;;;;;;7.80;5.05;;;11.50;99.90;;;;;;5081423;28;20040;-63
2022/05/22 01:53:09;;;;;;;7.55;4.70;;;11.50;99.90;;;;;;5080012;28;20505;-63
2022/05/22 01:55:35;;;;;;;6.50;3.80;;;11.40;99.90;;;;;;5078977;28;20044;-63
2022/05/22 01:58:01;;;;;;;6.32;3.67;;;11.40;99.90;;;;;;5086926;28;20036;-63
2022/05/22 02:00:27;;;;;;;7.72;3.63;;;11.40;99.90;;;;;;5081359;28;20469;-63
2022/05/22 02:02:57;;;;;;;7.03;3.45;;;11.40;99.90;;;;;;5079424;28;20127;-63
2022/05/22 02:05:23;;;;;;;9.32;3.28;;;11.30;99.90;;;;;;5075407;28;20078;-64
2022/05/22 02:10:34;;;;;;;6.25;3.45;;;11.30;99.90;;;;;;5078199;28;20049;-63
2022/05/22 02:13:00;;;;;;;5.95;3.53;;;11.30;99.90;;;;;;5077790;28;20032;-63
2022/05/22 02:15:26;;;;;;;7.05;3.42;;;11.30;99.90;;;;;;5079470;28;20139;-63
2022/05/22 02:17:52;;;;;;;5.22;2.75;;;11.20;99.90;;;;;;5081408;28;20127;-63
2022/05/22 02:20:18;;;;;;;6.88;2.90;;;11.20;99.90;;;;;;5076169;28;20041;-63
2022/05/22 02:22:53;;;;;;;6.70;2.88;;;11.20;99.90;;;;;;5079766;28;20040;-63
2022/05/22 02:25:25;;;;;;;5.72;3.03;;;11.10;99.90;;;;;;5076745;28;21878;-62
2022/05/22 02:27:52;;;;;;;5.72;3.25;;;11.10;99.90;;;;;;5079368;28;20434;-63
2022/05/22 02:30:20;;;;;;;5.53;3.40;;;11.10;99.90;;;;;;5082476;28;20064;-63
2022/05/22 02:32:45;;;;;;;5.40;3.17;;;11.10;99.90;;;;;;5077619;28;20044;-62
2022/05/22 02:35:13;;;;;;;6.50;3.05;;;11.00;99.90;;;;;;5081318;28;20036;-64
2022/05/22 02:37:47;;;;;;;7.28;2.97;;;11.00;99.90;;;;;;5085810;28;20048;-62
2022/05/22 02:40:14;;;;;;;4.15;2.40;;;11.00;99.90;;;;;;5081190;28;20066;-63
2022/05/22 02:42:44;;;;;;;3.67;2.10;;;10.90;99.90;;;;;;5083233;28;20028;-62
2022/05/22 02:45:11;;;;;;;5.07;2.53;;;10.90;99.90;;;;;;5081674;28;20178;-63
2022/05/22 02:47:37;;;;;;;4.00;2.13;;;10.90;99.90;;;;;;5084007;28;20470;-63
2022/05/22 02:50:05;;;;;;;4.63;2.30;;;10.90;99.90;;;;;;5083768;28;20075;-63
2022/05/22 02:52:31;;;;;;;3.83;2.10;;;10.80;99.90;;;;;;5082979;28;20089;-63
2022/05/22 02:54:57;;;;;;;5.00;2.10;;;10.80;99.90;;;;;;5080507;28;20032;-63
2022/05/22 02:57:22;;;;;;;4.30;2.22;;;10.70;99.90;;;;;;5082785;28;20106;-62
2022/05/22 02:59:53;;;;;;;3.88;1.88;;;10.70;99.90;;;;;;5083691;28;20068;-61
2022/05/22 03:02:19;;;;;;;4.13;2.42;;;10.70;99.90;;;;;;5075486;28;20052;-63
2022/05/22 03:04:45;;;;;;;4.18;2.53;;;10.70;99.90;;;;;;5081617;28;20044;-62
2022/05/22 03:07:14;;;;;;;3.63;2.20;;;10.70;99.90;;;;;;5085180;28;20028;-62
2022/05/22 03:09:41;;;;;;;3.80;2.13;;;10.60;99.90;;;;;;5085476;28;20086;-62
2022/05/22 03:12:09;;;;;;;5.20;2.55;;;10.60;99.90;;;;;;5085669;28;20138;-63
2022/05/22 03:14:34;;;;;;;4.82;2.47;;;10.60;99.90;;;;;;5080136;28;20569;-62
2022/05/22 03:17:00;;;;;;;4.22;2.33;;;10.60;99.90;;;;;;5083600;28;20145;-62
2022/05/22 03:19:25;;;;;;;4.65;2.20;;;10.50;99.90;;;;;;5086884;28;20053;-64
2022/05/22 03:21:51;;;;;;;6.30;2.70;;;10.50;99.90;;;;;;5079449;28;20161;-63
2022/05/22 03:24:17;;;;;;;4.63;2.53;;;10.50;99.90;;;;;;5080017;28;20386;-62
2022/05/22 03:26:42;;;;;;;5.13;2.80;;;10.50;99.90;;;;;;5084343;28;20469;-62
2022/05/22 03:29:08;;;;;;;5.53;2.75;;;10.50;99.90;;;;;;5084197;28;20055;-62
2022/05/22 03:31:34;;;;;;;3.55;2.33;;;10.50;99.90;;;;;;5081786;28;20055;-62
2022/05/22 03:33:59;;;;;;;5.97;2.70;;;10.50;99.90;;;;;;5083364;28;20086;-62
2022/05/22 03:36:25;;;;;;;4.95;2.60;;;10.40;99.90;;;;;;5083129;28;21506;-63
2022/05/22 03:38:50;;;;;;;3.92;2.38;;;10.40;99.90;;;;;;5077692;28;20048;-62
2022/05/22 03:41:16;;;;;;;6.05;2.45;;;10.40;99.90;;;;;;5074831;28;20047;-64
2022/05/22 03:43:42;;;;;;;3.33;2.20;;;10.40;99.90;;;;;;5090212;28;20093;-62
2022/05/22 03:46:07;;;;;;;3.50;2.03;;;10.40;99.90;;;;;;5077412;28;20040;-63
2022/05/22 03:48:33;;;;;;;4.53;2.03;;;10.40;99.90;;;;;;5086379;28;20043;-62
2022/05/22 03:50:59;;;;;;;4.85;2.30;;;10.40;99.90;;;;;;5082998;28;20040;-63
2022/05/22 03:53:25;;;;;;;4.63;2.13;;;10.40;99.90;;;;;;5082504;28;20036;-63
2022/05/22 03:55:50;;;;;;;3.70;2.17;;;10.40;99.90;;;;;;5081326;28;20097;-63
2022/05/22 03:58:17;;;;;;;4.78;2.40;;;10.40;99.90;;;;;;5083827;28;20035;-62
2022/05/22 04:00:43;;;;;;;3.45;1.83;;;10.40;99.90;;;;;;5079626;28;20509;-62
2022/05/22 04:03:09;;;;;;;4.97;2.20;;;10.40;99.90;;;;;;5086491;28;20119;-62
2022/05/22 04:05:35;;;;;;;5.30;2.20;;;10.40;99.90;;;;;;5086448;28;20048;-63
2022/05/22 04:08:00;;;;;;;5.30;2.60;;;10.50;99.90;;;;;;5081635;28;20067;-63
2022/05/22 04:10:26;;;;;;;5.90;2.50;;;10.50;99.90;;;;;;5082898;28;20115;-64
2022/05/22 04:12:52;;;;;;;5.28;2.55;;;10.60;99.90;;;;;;5085658;28;20382;-63
2022/05/22 04:15:20;;;;;;;6.60;3.05;;;10.60;99.90;;;;;;5083354;28;20040;-62
2022/05/22 04:17:46;;;;;;;4.10;2.22;;;10.70;99.90;;;;;;5086148;28;20040;-63
2022/05/22 04:20:13;;;;;;;5.95;3.08;;;10.70;99.90;;;;;;5078760;28;20089;-63
2022/05/22 04:25:11;;;;;;;5.47;2.88;;;10.70;99.90;;;;;;5075107;28;20032;-63
2022/05/22 04:25:24;;;;;;;;;;;10.80;99.90;;;;;;5078571;28;20137;-63
2022/05/22 04:27:50;;;;;;;5.88;2.83;;;10.80;99.90;;;;;;5083094;28;19969;-62
2022/05/22 04:30:19;;;;;;;5.75;3.00;;;10.80;99.90;;;;;;5083358;28;20094;-63
2022/05/22 04:32:46;;;;;;;6.90;3.47;;;10.90;99.90;;;;;;5081591;28;20036;-62
2022/05/22 04:35:13;;;;;;;5.00;3.10;;;10.90;99.90;;;;;;5086046;28;20053;-63
2022/05/22 04:37:39;;;;;;;7.28;3.20;;;11.00;99.90;;;;;;5080492;28;20068;-64
2022/05/22 04:40:06;;;;;;;6.40;3.10;;;11.10;99.90;;;;;;5080956;28;20064;-63
2022/05/22 04:42:33;;;;;;;6.40;3.03;;;11.10;99.90;;;;;;5082508;28;20028;-62
2022/05/22 04:44:59;;;;;;;7.45;3.38;;;11.20;99.90;;;;;;5076796;28;20495;-63
2022/05/22 04:47:25;;;;;;;5.97;3.40;;;11.40;99.90;;;;;;5081595;28;20040;-63
2022/05/22 04:49:50;;;;;;;6.63;3.60;;;11.40;99.90;;;;;;5086527;28;20032;-63
2022/05/22 04:52:16;;;;;;;6.97;3.78;;;11.50;99.90;;;;;;5082391;28;20493;-63
2022/05/22 04:54:42;;;;;;;7.50;3.92;;;11.70;99.90;;;;;;5079016;28;20186;-63
2022/05/22 04:57:08;;;;;;;6.82;3.72;;;11.70;99.90;;;;;;5080221;28;20122;-63
2022/05/22 04:59:33;;;;;;;8.15;3.90;;;11.90;99.90;;;;;;5082619;28;20044;-63
2022/05/22 05:01:59;;;;;;;6.43;3.70;;;12.00;99.90;;;;;;5075158;28;20089;-63
2022/05/22 05:04:24;;;;;;;7.78;3.72;;;12.10;99.90;;;;;;5082909;28;20124;-62
2022/05/22 05:06:52;;;;;;;8.82;4.15;;;12.20;99.90;;;;;;5075525;28;20040;-63
2022/05/22 05:09:18;;;;;;;7.55;4.10;;;12.30;99.90;;;;;;5078529;28;20063;-62
2022/05/22 05:11:44;;;;;;;7.00;3.80;;;12.40;99.90;;;;;;5077459;28;20124;-62
2022/05/22 05:14:09;;;;;;;7.63;4.30;;;12.50;99.90;;;;;;5080345;28;20047;-63
2022/05/22 05:16:35;;;;;;;7.32;4.00;;;12.70;99.90;;;;;;5075288;28;20044;-62
2022/05/22 05:19:01;;;;;;;8.88;4.22;;;12.80;99.90;;;;;;5079356;28;20051;-62
2022/05/22 05:21:27;;;;;;;9.77;4.70;;;12.90;99.90;;;;;;5085674;28;20036;-63
2022/05/22 05:23:55;;;;;;;10.30;4.50;;;13.00;99.90;;;;;;5077862;28;20479;-64
2022/05/22 05:26:20;;;;;;;8.98;4.50;;;13.10;99.90;;;;;;5081808;28;20044;-62
2022/05/22 05:28:46;;;;;;;9.10;4.60;;;13.30;99.90;;;;;;5086420;28;20406;-62
2022/05/22 05:31:11;;;;;;;8.00;4.32;;;13.40;99.90;;;;;;5080761;28;20497;-62
2022/05/22 05:33:37;;;;;;;8.70;4.28;;;13.50;99.90;;;;;;5075188;28;20146;-62
2022/05/22 05:36:07;;;;;;;9.00;4.78;;;13.60;99.90;;;;;;5081233;28;20056;-64
2022/05/22 05:38:32;;;;;;;9.48;4.85;;;13.80;99.90;;;;;;5077445;28;20044;-62
2022/05/22 05:40:58;;;;;;;9.80;4.80;;;13.90;99.90;;;;;;5076668;28;20554;-62
2022/05/22 05:43:23;;;;;;;11.00;4.50;;;14.00;99.90;;;;;;5079997;28;20040;-63
2022/05/22 05:45:50;;;;;;;9.45;4.40;;;14.20;99.90;;;;;;5085905;28;20056;-62
2022/05/22 05:48:17;;;;;;;7.80;4.50;;;14.30;99.90;;;;;;5080213;28;20134;-63
2022/05/22 05:50:42;;;;;;;9.88;4.60;;;14.40;99.90;;;;;;5074789;28;20127;-62
2022/05/22 05:53:08;;;;;;;10.23;4.53;;;14.50;99.90;;;;;;5082168;28;20078;-62
2022/05/22 05:55:34;;;;;;;9.70;4.65;;;14.60;99.90;;;;;;5079368;28;20056;-62
2022/05/22 05:58:00;;;;;;;8.80;4.75;;;14.70;99.90;;;;;;5076267;28;20131;-62
2022/05/22 06:00:26;;;;;;;10.45;4.85;;;14.80;99.90;;;;;;5079679;28;20102;-62
2022/05/22 06:02:52;;;;;;;12.43;4.97;;;14.90;99.90;;;;;;5081104;28;20535;-62
2022/05/22 06:05:19;;;;;;;10.77;4.72;;;15.10;99.90;;;;;;5080361;28;20052;-63
2022/05/22 06:07:48;;;;;;;8.82;4.60;;;15.20;99.90;;;;;;5082657;28;20066;-61
2022/05/22 06:10:14;;;;;;;10.52;4.72;;;15.30;99.90;;;;;;5086712;28;20108;-62
2022/05/22 06:12:39;;;;;;;7.82;4.75;;;15.40;99.90;;;;;;5089210;28;20047;-62
2022/05/22 06:15:05;;;;;;;10.98;5.18;;;15.50;99.90;;;;;;5080658;28;20397;-63
2022/05/22 06:17:34;;;;;;;10.00;4.82;;;15.60;99.90;;;;;;5089305;28;20261;-64
2022/05/22 06:20:03;;;;;;;10.63;4.95;;;15.70;99.90;;;;;;5088634;28;20040;-63
2022/05/22 06:22:29;;;;;;;9.45;4.47;;;15.70;99.90;;;;;;5080072;28;20513;-64
2022/05/22 06:24:55;;;;;;;10.07;4.80;;;15.80;99.90;;;;;;5086966;28;20044;-62
2022/05/22 06:27:21;;;;;;;10.48;4.57;;;15.90;99.90;;;;;;5084343;28;20036;-63
2022/05/22 06:29:47;;;;;;;10.00;4.60;;;16.00;99.90;;;;;;5081235;28;20038;-62
2022/05/22 06:32:15;;;;;;;7.95;4.40;;;16.10;99.90;;;;;;5077084;28;20079;-63
2022/05/22 06:34:42;;;;;;;11.10;5.13;;;16.20;99.90;;;;;;5083156;28;20048;-63
2022/05/22 06:37:11;;;;;;;5.88;3.75;;;16.20;99.90;;;;;;5086486;28;20450;-62
2022/05/22 06:39:50;;;;;;;9.52;4.93;;;16.30;99.90;;;;;;5084935;28;20044;-63
2022/05/22 06:42:22;;;;;;;10.70;4.53;;;16.30;99.90;;;;;;5081338;28;20934;-62
2022/05/22 06:45:00;;;;;;;8.75;4.15;;;16.40;99.90;;;;;;5078619;28;20045;-62
2022/05/22 06:47:28;;;;;;;11.15;4.28;;;16.50;99.90;;;;;;5073163;28;20032;-62
2022/05/22 06:49:54;;;;;;;10.43;4.20;;;16.60;99.90;;;;;;5076468;28;20067;-62
2022/05/22 06:52:20;;;;;;;8.70;4.15;;;16.60;99.90;;;;;;5074820;28;20471;-64
2022/05/22 06:54:46;;;;;;;9.88;4.18;;;16.70;99.90;;;;;;5093475;28;20436;-62
2022/05/22 06:57:18;;;;;;;10.30;4.05;;;16.80;99.90;;;;;;5075725;28;20032;-62
2022/05/22 06:59:45;;;;;;;9.02;4.20;;;16.90;99.90;;;;;;5076874;28;20125;-61
2022/05/22 07:02:11;;;;;;;9.60;4.32;;;17.00;99.90;;;;;;5076386;28;20087;-62
2022/05/22 07:04:37;;;;;;;12.20;3.60;;;17.10;99.90;;;;;;5085532;28;20170;-62
2022/05/22 07:07:03;;;;;;;8.40;3.80;;;17.20;99.90;;;;;;5081557;28;20131;-64
2022/05/22 07:09:28;;;;;;;7.43;3.40;;;17.20;99.90;;;;;;5079126;28;20460;-63
2022/05/22 07:11:54;;;;;;;9.95;3.75;;;17.30;99.90;;;;;;5082264;28;20066;-62
2022/05/22 07:14:21;;;;;;;10.25;3.83;;;17.40;99.90;;;;;;5084968;28;20092;-63
2022/05/22 07:16:47;;;;;;;10.27;3.75;;;17.50;99.90;;;;;;5086337;28;20132;-62
2022/05/22 07:19:13;;;;;;;9.38;4.38;;;17.60;99.90;;;;;;5084600;28;20130;-63
2022/05/22 07:21:39;;;;;;;10.38;3.30;;;17.70;99.90;;;;;;5084580;28;20090;-63
2022/05/22 07:24:05;;;;;;;9.15;3.40;;;17.70;99.90;;;;;;5083967;28;20062;-64
2022/05/22 07:26:30;;;;;;;9.20;3.50;;;17.80;99.90;;;;;;5081517;28;20058;-62
2022/05/22 07:29:01;;;;;;;10.80;3.58;;;17.90;99.90;;;;;;5076419;28;20602;-62
2022/05/22 07:31:27;;;;;;;9.68;3.20;;;18.00;99.90;;;;;;5081352;28;20047;-63
2022/05/22 07:33:53;;;;;;;11.23;3.22;;;18.00;99.90;;;;;;5082625;28;20067;-61
2022/05/22 07:36:20;;;;;;;8.43;2.33;;;18.00;99.90;;;;;;5078545;28;20044;-62
2022/05/22 07:38:47;;;;;;;6.18;2.85;;;18.10;99.90;;;;;;5082318;28;20090;-63
2022/05/22 07:41:13;;;;;;;8.30;3.08;;;18.20;99.90;;;;;;5079320;28;20079;-63
2022/05/22 07:43:39;;;;;;;8.05;2.28;;;18.30;99.90;;;;;;5082243;28;20488;-63
2022/05/22 07:46:06;;;;;;;10.10;3.67;;;18.40;99.90;;;;;;5076683;28;20139;-62
2022/05/22 07:48:32;;;;;;;9.30;2.60;;;18.60;99.90;;;;;;5073900;28;20130;-63
2022/05/22 07:51:00;;;;;;;9.82;3.50;;;18.60;99.90;;;;;;5085229;28;20470;-62
2022/05/22 07:53:27;;;;;;;11.80;3.45;;;18.50;99.90;;;;;;5078911;28;20383;-61
2022/05/22 07:55:53;;;;;;;12.32;3.10;;;18.70;99.90;;;;;;5077943;28;20072;-62
2022/05/22 07:58:20;;;;;;;8.80;1.98;;;18.80;99.90;;;;;;5082610;28;20032;-63
2022/05/22 08:00:46;;;;;;;9.00;2.72;;;18.80;99.90;;;;;;5079573;28;20154;-62
2022/05/22 08:03:14;;;;;;;10.40;2.97;;;18.80;99.90;;;;;;5084195;28;20994;-63
2022/05/22 08:05:40;;;;;;;8.88;3.13;;;19.00;99.90;;;;;;5075313;28;20032;-64
2022/05/22 08:08:07;;;;;;;10.27;2.72;;;19.00;99.90;;;;;;5080820;28;20139;-63
2022/05/22 08:10:33;;;;;;;7.40;2.67;;;19.10;99.90;;;;;;5084294;28;20143;-61
2022/05/22 08:12:58;;;;;;;11.68;2.97;;;19.20;99.90;;;;;;5083670;28;20404;-62
2022/05/22 08:15:26;;;;;;;7.15;2.35;;;19.40;99.90;;;;;;5077769;28;20044;-62
2022/05/22 08:17:52;;;;;;;8.73;2.90;;;19.40;99.90;;;;;;5078365;28;20044;-62
2022/05/22 08:20:20;;;;;;;8.57;2.88;;;19.50;99.90;;;;;;5085355;28;20048;-62
2022/05/22 08:22:46;;;;;;;9.35;2.63;;;19.50;99.90;;;;;;5091077;28;20440;-63
2022/05/22 08:25:14;;;;;;;8.75;2.45;;;19.60;99.90;;;;;;5082878;28;20036;-62
2022/05/22 08:27:40;;;;;;;12.73;3.58;;;19.60;99.90;;;;;;5083259;28;20059;-63
2022/05/22 08:30:07;;;;;;;7.22;2.50;;;19.70;99.90;;;;;;5082023;28;20102;-62
2022/05/22 08:32:39;;;;;;;5.43;1.70;;;19.70;99.90;;;;;;5090797;28;20135;-62
2022/05/22 08:35:07;;;;;;;8.35;2.65;;;19.90;99.90;;;;;;5078921;28;20063;-62
2022/05/22 08:37:34;;;;;;;10.02;2.67;;;19.90;99.90;;;;;;5073834;28;20079;-63
2022/05/22 08:40:00;;;;;;;12.63;2.50;;;19.90;99.90;;;;;;5083300;28;20168;-65
2022/05/22 08:42:45;;;;;;;7.55;2.47;;;20.00;99.90;;;;;;5079870;28;20036;-65
2022/05/22 08:45:31;;;;;;;;;;;20.00;99.50;;;;;;5078351;28;20079;-65
2022/05/22 08:48:06;;;;;;;9.73;2.20;;;20.10;98.00;;;;;;5079971;28;19927;-65
2022/05/22 08:50:32;;;;;;;8.57;2.40;;;20.20;99.10;;;;;;5073213;28;20529;-64
2022/05/22 08:53:04;;;;;;;8.10;2.60;;;20.30;98.90;;;;;;5081686;28;20056;-62
2022/05/22 09:01:25;;;;;;;7.30;2.20;;;20.40;98.00;;;;;;5078342;28;20085;-63
2022/05/22 09:04:19;;;;;;;7.85;2.03;;;20.40;98.00;;;;;;5076759;28;20048;-62
2022/05/22 09:06:53;;;;;;;6.05;1.88;;;20.50;95.80;;;;;;5076421;28;20136;-62
2022/05/22 09:09:18;;;;;;;6.00;1.70;;;20.60;95.90;;;;;;5083889;28;20489;-62
2022/05/22 09:12:02;;;;;;;8.68;2.30;;;20.60;95.70;;;;;;5078382;28;20048;-65
2022/05/22 09:14:40;;;;;;;7.93;1.98;;;20.70;95.50;;;;;;5079167;28;20040;-63
2022/05/22 09:17:18;;;;;;;7.97;2.35;;;20.60;94.00;;;;;;5078870;28;20040;-63
2022/05/22 09:19:49;;;;;;;10.65;2.28;;;20.60;94.00;;;;;;5081626;28;20143;-62
2022/05/22 09:22:24;;;;;;;6.38;2.17;;;20.60;94.90;;;;;;5079515;28;20466;-63
2022/05/22 09:25:17;;;;;;;8.98;2.40;;;20.80;94.70;;;;;;5074186;28;20433;-63
2022/05/22 09:27:51;;;;;;;8.20;2.13;;;20.90;92.10;;;;;;5078432;28;20215;-62
2022/05/22 09:30:17;;;;;;;8.23;1.92;;;20.90;93.20;;;;;;5079423;28;20067;-63
2022/05/22 09:33:09;;;;;;;7.57;1.95;;;21.00;93.80;;;;;;5077781;28;20052;-62
2022/05/22 09:35:52;;;;;;;8.20;2.33;;;21.20;93.40;;;;;;5081747;28;20401;-62
2022/05/22 09:38:50;;;;;;;6.90;2.10;;;21.30;90.40;;;;;;5076906;28;20051;-62
2022/05/22 09:41:29;;;;;;;8.38;1.80;;;21.20;91.70;;;;;;5074721;28;20064;-61
2022/05/22 09:44:19;;;;;;;7.03;1.85;;;21.30;91.90;;;;;;5076946;28;20059;-62
2022/05/22 09:47:00;;;;;;;8.60;2.08;;;21.50;92.60;;;;;;5077891;28;20040;-64
2022/05/22 09:49:30;;;;;;;8.57;2.08;;;21.40;91.40;;;;;;5078187;28;20051;-62
2022/05/22 09:52:19;;;;;;;8.43;1.88;;;21.50;90.80;;;;;;5073048;28;20135;-62
2022/05/22 09:55:20;;;;;;;6.97;1.80;;;21.40;90.50;;;;;;5076832;28;20054;-63
2022/05/22 09:57:54;;;;;;;6.45;1.70;;;21.50;90.20;;;;;;5022957;28;20136;-63
2022/05/22 10:00:27;;;;;;;9.32;2.10;;;21.60;90.30;;;;;;5066064;28;20040;-62
2022/05/22 10:03:06;;;;;;;7.40;1.95;;;21.80;89.90;;;;;;5077477;28;20044;-62
2022/05/22 10:05:42;;;;;;;6.13;1.90;;;21.90;87.70;;;;;;5078899;28;20066;-63
2022/05/22 10:08:16;;;;;;;5.53;1.85;;;22.00;86.50;;;;;;5076499;28;20052;-62
2022/05/22 10:11:02;;;;;;;6.60;1.65;;;22.00;84.40;;;;;;5073664;28;20052;-62
2022/05/22 10:14:01;;;;;;;7.57;1.77;;;22.10;84.20;;;;;;5074777;28;20040;-62
2022/05/22 10:16:59;;;;;;;6.30;1.60;;;22.20;84.30;;;;;;5083934;28;20040;-63
2022/05/22 10:19:40;;;;;;;7.85;1.70;;;22.30;82.70;;;;;;5086259;28;20048;-64
2022/05/22 10:22:46;;;;;;;6.65;2.03;;;22.50;79.70;;;;;;5082050;28;20166;-64
2022/05/22 10:25:21;;;;;;;;;;;22.50;78.10;;;;;;5082441;28;20097;-64
2022/05/22 10:27:46;;;;;;;;;;;22.60;75.10;;;;;;5080669;28;20398;-65
2022/05/22 10:30:38;;;;;;;5.57;1.52;;;22.60;81.30;;;;;;5082278;28;20007;-65
2022/05/22 10:33:10;;;;;;;4.53;1.27;;;22.70;79.00;;;;;;5077711;28;20044;-65
2022/05/22 10:35:46;;;;;;;5.15;1.50;;;22.60;71.30;;;;;;5085924;28;20404;-65
2022/05/22 10:38:20;;;;;;;4.88;1.33;;;22.60;73.20;;;;;;5082015;28;20075;-65
2022/05/22 10:43:37;;;;;;;20.70;19.00;;;22.50;72.00;;;;;;5078964;28;20048;-67
2022/05/22 10:46:04;;;;;;;5.93;1.77;;;22.60;74.70;;;;;;5082106;28;20376;-63
2022/05/22 10:48:31;;;;;;;8.35;1.70;;;22.60;73.60;;;;;;5082463;28;20052;-64
2022/05/22 10:51:06;;;;;;;8.02;2.22;;;22.60;73.50;;;;;;5085104;28;20040;-63
2022/05/22 10:53:34;;;;;;;;;;;22.70;74.10;;;;;;5087272;28;20068;-63
2022/05/22 10:56:16;;;;;;;5.82;1.85;;;22.90;76.90;;;;;;5077976;28;20044;-64
2022/05/22 10:58:57;;;;;;;7.97;1.98;;;23.10;76.30;;;;;;5075480;28;20425;-62
2022/05/22 11:01:34;;;;;;;6.28;2.00;;;23.20;74.20;;;;;;5084198;28;20056;-64
2022/05/22 11:04:13;;;;;;;5.85;2.13;;;23.00;74.30;;;;;;5084477;28;20036;-65
2022/05/22 11:06:54;;;;;;;7.97;1.70;;;22.70;72.90;;;;;;5090020;28;20420;-65
2022/05/22 11:09:49;;;;;;;7.65;2.03;;;22.60;72.40;;;;;;5086951;28;20032;-63
2022/05/22 11:12:23;;;;;;;5.47;1.75;;;22.60;74.60;;;;;;5087080;28;20426;-63
2022/05/22 11:14:49;;;;;;;4.93;1.70;;;22.60;71.80;;;;;;5087185;28;20416;-62
2022/05/22 11:17:16;;;;;;;5.70;2.00;;;22.50;72.30;;;;;;5083417;28;20060;-68
2022/05/22 11:19:44;;;;;;;6.28;2.00;;;22.40;70.60;;;;;;5082696;28;20040;-63
2022/05/22 11:22:23;;;;;;;7.03;1.98;;;22.30;69.70;;;;;;5081763;28;20051;-66
2022/05/22 11:25:04;;;;;;;6.45;1.88;;;22.30;69.80;;;;;;5084401;28;20044;-66
2022/05/22 11:27:57;;;;;;;6.30;1.80;;;22.00;70.70;;;;;;5082949;28;20044;-64
2022/05/22 11:30:57;;;;;;;6.07;2.10;;;21.90;70.40;;;;;;5065962;28;20090;-64
2022/05/22 11:33:52;;;;;;;6.93;1.70;;;21.60;72.60;;;;;;5082174;28;20064;-63
2022/05/22 11:36:38;;;;;;;4.22;1.30;;;21.50;73.00;;;;;;5082637;28;20064;-63
2022/05/22 11:39:36;;;;;;;4.93;1.45;;;21.50;73.40;;;;;;5087714;28;20048;-63
2022/05/22 11:42:04;;;;;;;5.82;1.90;;;21.40;73.60;;;;;;5085808;28;20044;-66
2022/05/22 11:44:48;;;;;;;7.90;2.08;;;21.40;73.70;;;;;;5081754;28;20044;-65
2022/05/22 11:47:28;;;;;;;5.72;1.63;;;21.30;69.70;;;;;;5077709;28;20479;-64
2022/05/22 11:50:20;;;;;;;6.90;1.75;;;21.10;72.10;;;;;;5079625;28;20571;-65
2022/05/22 11:53:03;;;;;;;5.43;1.60;;;21.20;74.20;;;;;;5080830;28;20119;-64
2022/05/22 11:56:06;;;;;;;5.82;1.50;;;21.30;76.50;;;;;;5080507;28;20537;-64
2022/05/22 11:58:51;;;;;;;6.00;1.70;;;21.60;72.80;;;;;;5070238;28;20123;-63
2022/05/22 12:01:32;;;;;;;6.25;1.50;;;22.00;72.10;;;;;;5084734;28;20154;-64
2022/05/22 12:04:38;;;;;;;2.60;1.10;;;22.30;70.10;;;;;;5074883;28;20516;-64
2022/05/22 12:07:27;;;;;;;5.55;1.50;;;22.70;70.90;;;;;;5073300;28;20052;-64
2022/05/22 12:10:17;;;;;;;6.15;1.50;;;23.10;70.40;;;;;;5073153;28;20086;-64
2022/05/22 12:12:47;;;;;;;4.95;1.60;;;23.40;70.20;;;;;;5075549;28;20075;-64
2022/05/22 12:15:31;;;;;;;4.60;1.30;;;23.50;70.40;;;;;;5078189;28;20152;-64
2022/05/22 12:18:15;;;;;;;4.38;1.33;;;23.70;67.00;;;;;;5080081;28;20055;-63
2022/05/22 12:21:25;;;;;;;5.60;1.60;;;23.90;67.30;;;;;;5072797;28;20044;-63
2022/05/22 12:24:20;;;;;;;4.07;1.27;;;24.00;65.90;;;;;;5075938;28;20063;-64
2022/05/22 12:26:47;;;;;;;6.00;1.55;;;24.10;66.70;;;;;;5066100;28;20049;-63
2022/05/22 12:29:24;;;;;;;6.50;1.60;;;24.30;65.40;;;;;;5072114;28;20040;-63
2022/05/22 12:31:56;;;;;;;5.05;1.48;;;24.40;65.10;;;;;;5090745;28;20086;-63
2022/05/22 12:34:47;;;;;;;4.53;1.40;;;24.50;65.20;;;;;;5088425;28;20508;-63
2022/05/22 12:37:37;;;;;;;4.65;1.75;;;24.60;64.80;;;;;;5080635;28;20100;-64
2022/05/22 12:40:19;;;;;;;5.10;1.40;;;24.70;63.00;;;;;;5089098;28;20064;-64
2022/05/22 12:42:58;;;;;;;5.50;1.55;;;24.80;61.20;;;;;;5086793;28;20094;-64
2022/05/22 12:45:25;;;;;;;4.35;1.33;;;24.80;61.80;;;;;;5077500;28;20131;-64
2022/05/22 12:48:07;;;;;;;5.00;1.40;;;24.70;60.50;;;;;;5082136;28;20366;-65
2022/05/22 12:50:51;;;;;;;6.30;1.55;;;24.70;61.20;;;;;;5080986;28;20129;-65
2022/05/22 12:53:27;;;;;;;6.45;1.42;;;24.60;60.70;;;;;;5080148;28;20088;-64
2022/05/22 12:55:53;;;;;;;4.82;1.60;;;24.50;60.70;;;;;;5078730;28;20055;-66
2022/05/22 12:58:35;;;;;;;5.60;1.65;;;24.20;60.90;;;;;;5079226;28;20045;-65
2022/05/22 13:01:00;;;;;;;5.30;1.63;;;24.10;60.50;;;;;;5074930;28;20206;-66
2022/05/22 13:03:35;;;;;;;3.75;1.30;;;24.10;61.30;;;;;;5085724;28;20048;-65
2022/05/22 13:06:14;;;;;;;3.88;1.27;;;24.00;60.30;;;;;;5087079;28;20040;-64
2022/05/22 13:08:44;;;;;;;4.50;1.27;;;23.90;60.50;;;;;;5071752;28;20044;-65
2022/05/22 13:11:09;;;;;;;7.25;1.50;;;23.80;60.70;;;;;;5077553;28;20386;-66
2022/05/22 13:13:48;;;;;;;3.92;1.20;;;23.60;60.80;;;;;;5080497;28;20048;-64
2022/05/22 13:16:25;;;;;;;6.60;1.35;;;23.60;61.50;;;;;;5075255;28;20047;-65
2022/05/22 13:18:51;;;;;;;6.13;1.80;;;23.70;62.60;;;;;;5071648;28;20044;-65
2022/05/22 13:21:38;;;;;;;4.30;1.42;;;23.80;61.80;;;;;;5079035;28;20109;-65